Time;durP1;ratioP1;P1;durP2;ratioP2;P2;SDS_P1;SDS_P2;PMS_P1;PMS_P2;Temp;Humidity;BMP_temperature;BMP_pressure;BME280_temperature;BME280_humidity;BME280_pressure;Samples;Min_cycle;Max_cycle;Signal;HPM_P1;HPM_P2
2021/09/01 00:00:05;;;;;;;;;;;24.60;49.20;;;;;;491569;240;968;-71
2021/09/01 00:02:06;;;;;;;;;;;24.70;49.30;;;;;;491544;240;2195;-70
2021/09/01 00:04:08;;;;;;;;;;;24.80;49.00;;;;;;491713;240;1161;-70
2021/09/01 00:06:09;;;;;;;;;;;24.80;48.90;;;;;;491548;240;1206;-70
2021/09/01 00:08:11;;;;;;;;;;;24.20;49.70;;;;;;491559;240;1050;-70
2021/09/01 00:10:12;;;;;;;;;;;24.40;49.80;;;;;;491608;240;1046;-70
2021/09/01 00:12:13;;;;;;;;;;;24.50;49.70;;;;;;491508;240;1596;-71
2021/09/01 00:14:15;;;;;;;;;;;24.60;49.40;;;;;;491596;240;1049;-70
2021/09/01 00:16:26;;;;;;;;;;;24.60;49.30;;;;;;491449;240;1105;-70
2021/09/01 00:18:27;;;;;;;;;;;24.50;49.40;;;;;;491544;240;1144;-70
2021/09/01 00:20:29;;;;;;;;;;;24.60;49.20;;;;;;491570;240;1213;-71
2021/09/01 00:22:30;;;;;;;;;;;24.60;49.20;;;;;;491512;240;2187;-71
2021/09/01 00:24:31;;;;;;;;;;;24.70;49.00;;;;;;491587;240;1119;-71
2021/09/01 00:26:33;;;;;;;;;;;24.60;49.00;;;;;;491458;240;1335;-70
2021/09/01 00:28:34;;;;;;;;;;;24.40;49.70;;;;;;491553;240;1078;-71
2021/09/01 00:30:35;;;;;;;;;;;24.60;49.20;;;;;;491548;240;1365;-70
2021/09/01 00:32:37;;;;;;;;;;;24.50;49.20;;;;;;491569;240;1113;-71
2021/09/01 00:34:38;;;;;;;;;;;24.40;49.50;;;;;;491612;240;1144;-71
2021/09/01 00:36:39;;;;;;;;;;;24.50;49.40;;;;;;491483;240;1219;-70
2021/09/01 00:38:41;;;;;;;;;;;24.50;49.30;;;;;;491537;240;1033;-70
2021/09/01 00:40:42;;;;;;;;;;;24.60;48.90;;;;;;491496;240;1168;-71
2021/09/01 00:42:43;;;;;;;;;;;24.40;49.10;;;;;;491501;240;2184;-71
2021/09/01 00:44:46;;;;;;;;;;;24.50;49.10;;;;;;491540;240;1008;-71
2021/09/01 00:46:47;;;;;;;;;;;24.60;48.90;;;;;;491472;240;1370;-71
2021/09/01 00:48:48;;;;;;;;;;;24.60;48.70;;;;;;491623;240;1090;-70
2021/09/01 00:50:50;;;;;;;;;;;24.70;48.80;;;;;;491547;240;1229;-71
2021/09/01 00:52:51;;;;;;;;;;;24.40;49.30;;;;;;491568;240;1219;-71
2021/09/01 00:54:52;;;;;;;;;;;24.40;49.20;;;;;;491628;240;1081;-71
2021/09/01 00:56:54;;;;;;;;;;;24.60;49.20;;;;;;491543;240;1227;-71
2021/09/01 00:58:55;;;;;;;;;;;24.60;48.80;;;;;;491614;240;1185;-71
2021/09/01 01:01:12;;;;;;;;;;;24.50;48.90;;;;;;491604;240;1203;-71
2021/09/01 01:03:04;;;;;;;;;;;24.50;49.00;;;;;;491079;242;2171;-71
2021/09/01 01:05:05;;;;;;;;;;;24.50;49.10;;;;;;491669;240;1151;-70
2021/09/01 01:07:07;;;;;;;;;;;24.70;48.80;;;;;;491566;240;1138;-70
2021/09/01 01:09:08;;;;;;;;;;;24.40;49.10;;;;;;491557;240;1041;-71
2021/09/01 01:11:10;;;;;;;;;;;24.60;48.90;;;;;;491586;240;1241;-71
2021/09/01 01:13:11;;;;;;;;;;;24.30;49.20;;;;;;491531;240;1065;-71
2021/09/01 01:15:12;;;;;;;;;;;24.60;48.70;;;;;;491559;240;1047;-70
2021/09/01 01:17:13;;;;;;;;;;;24.50;48.70;;;;;;491509;240;1233;-71
2021/09/01 01:19:15;;;;;;;;;;;24.60;48.60;;;;;;491665;240;1092;-71
2021/09/01 01:21:16;;;;;;;;;;;24.70;48.50;;;;;;491552;240;1171;-70
2021/09/01 01:23:17;;;;;;;;;;;24.50;48.70;;;;;;491585;240;2183;-71
2021/09/01 01:25:19;;;;;;;;;;;24.60;48.70;;;;;;491621;240;1080;-71
2021/09/01 01:27:20;;;;;;;;;;;24.70;48.40;;;;;;491554;240;1194;-70
2021/09/01 01:29:21;;;;;;;;;;;24.50;48.80;;;;;;491643;240;1113;-70
2021/09/01 01:31:23;;;;;;;;;;;24.70;48.20;;;;;;491542;240;1149;-70
2021/09/01 01:33:24;;;;;;;;;;;24.70;48.20;;;;;;491554;240;1110;-70
2021/09/01 01:35:25;;;;;;;;;;;24.70;48.10;;;;;;491583;240;1168;-70
2021/09/01 01:37:27;;;;;;;;;;;24.60;48.10;;;;;;491528;240;1241;-70
2021/09/01 01:39:28;;;;;;;;;;;24.60;48.20;;;;;;491564;240;980;-70
2021/09/01 01:41:29;;;;;;;;;;;24.70;48.00;;;;;;491496;240;1126;-70
2021/09/01 01:43:36;;;;;;;;;;;24.70;48.00;;;;;;491603;240;2149;-70
2021/09/01 01:45:33;;;;;;;;;;;24.70;47.90;;;;;;491381;242;1432;-70
2021/09/01 01:47:34;;;;;;;;;;;24.70;47.80;;;;;;491401;240;1169;-70
2021/09/01 01:49:35;;;;;;;;;;;24.60;48.10;;;;;;491648;240;966;-70
2021/09/01 01:51:37;;;;;;;;;;;24.80;47.70;;;;;;491523;240;1227;-71
2021/09/01 01:53:38;;;;;;;;;;;24.50;48.10;;;;;;491579;240;965;-70
2021/09/01 01:55:39;;;;;;;;;;;24.60;48.20;;;;;;491611;240;1048;-70
2021/09/01 01:57:41;;;;;;;;;;;24.40;48.30;;;;;;491534;240;1110;-70
2021/09/01 01:59:42;;;;;;;;;;;24.60;47.80;;;;;;491579;240;1032;-70
2021/09/01 02:01:43;;;;;;;;;;;24.70;47.70;;;;;;491590;240;1357;-70
2021/09/01 02:03:45;;;;;;;;;;;24.60;47.70;;;;;;491611;240;2136;-70
2021/09/01 02:05:46;;;;;;;;;;;24.60;47.70;;;;;;491548;240;1180;-70
2021/09/01 02:07:47;;;;;;;;;;;24.50;47.80;;;;;;491493;240;1092;-70
2021/09/01 02:09:49;;;;;;;;;;;24.60;47.60;;;;;;491582;240;1070;-70
2021/09/01 02:11:50;;;;;;;;;;;24.50;47.90;;;;;;491525;240;1218;-70
2021/09/01 02:13:51;;;;;;;;;;;24.30;48.10;;;;;;491495;240;980;-71
2021/09/01 02:15:52;;;;;;;;;;;24.10;48.80;;;;;;491551;240;1266;-70
2021/09/01 02:17:54;;;;;;;;;;;24.40;48.00;;;;;;491495;240;1145;-71
2021/09/01 02:19:55;;;;;;;;;;;24.30;47.90;;;;;;491580;240;1093;-71
2021/09/01 02:21:56;;;;;;;;;;;24.40;48.00;;;;;;491515;240;1269;-71
2021/09/01 02:23:58;;;;;;;;;;;24.30;47.90;;;;;;491582;240;2192;-71
2021/09/01 02:25:59;;;;;;;;;;;24.40;47.90;;;;;;491522;240;1184;-70
2021/09/01 02:28:00;;;;;;;;;;;24.30;47.80;;;;;;491590;240;1157;-70
2021/09/01 02:30:02;;;;;;;;;;;24.40;47.80;;;;;;491571;240;1124;-71
2021/09/01 02:32:03;;;;;;;;;;;24.40;47.70;;;;;;491504;240;1190;-71
2021/09/01 02:34:04;;;;;;;;;;;24.40;47.80;;;;;;491603;240;1099;-70
2021/09/01 02:36:06;;;;;;;;;;;24.40;47.70;;;;;;491659;240;1203;-71
2021/09/01 02:38:07;;;;;;;;;;;24.40;47.60;;;;;;491636;240;1097;-71
2021/09/01 02:40:08;;;;;;;;;;;24.40;47.70;;;;;;491648;240;952;-70
2021/09/01 02:42:10;;;;;;;;;;;24.20;47.60;;;;;;491598;240;1210;-70
2021/09/01 02:44:11;;;;;;;;;;;24.20;47.60;;;;;;491600;240;2180;-71
2021/09/01 02:46:12;;;;;;;;;;;24.20;47.60;;;;;;491532;240;1103;-71
2021/09/01 02:48:15;;;;;;;;;;;24.40;47.40;;;;;;491598;240;1106;-70
2021/09/01 02:50:15;;;;;;;;;;;24.20;47.80;;;;;;491526;242;1411;-70
2021/09/01 02:52:16;;;;;;;;;;;24.00;47.70;;;;;;491460;240;1140;-71
2021/09/01 02:54:18;;;;;;;;;;;24.00;48.10;;;;;;491596;240;1133;-71
2021/09/01 02:56:19;;;;;;;;;;;24.30;47.40;;;;;;491509;240;1110;-70
2021/09/01 02:58:20;;;;;;;;;;;24.20;47.80;;;;;;491677;240;1083;-71
2021/09/01 03:00:22;;;;;;;;;;;24.30;47.30;;;;;;491604;240;943;-71
2021/09/01 03:02:23;;;;;;;;;;;24.20;47.50;;;;;;491593;240;1095;-70
2021/09/01 03:04:25;;;;;;;;;;;23.90;47.70;;;;;;491621;240;2188;-70
2021/09/01 03:06:26;;;;;;;;;;;24.30;47.50;;;;;;491621;240;1267;-70
2021/09/01 03:08:27;;;;;;;;;;;24.10;47.50;;;;;;491619;240;967;-71
2021/09/01 03:10:29;;;;;;;;;;;24.40;47.10;;;;;;491629;240;967;-71
2021/09/01 03:12:30;;;;;;;;;;;24.20;47.30;;;;;;491592;240;1157;-71
2021/09/01 03:14:31;;;;;;;;;;;24.30;47.10;;;;;;491606;240;987;-70
2021/09/01 03:16:33;;;;;;;;;;;24.30;47.30;;;;;;491657;240;1275;-71
2021/09/01 03:18:34;;;;;;;;;;;24.00;47.60;;;;;;491654;240;1038;-71
2021/09/01 03:20:35;;;;;;;;;;;24.00;47.50;;;;;;491644;240;954;-71
2021/09/01 03:22:37;;;;;;;;;;;24.20;47.30;;;;;;491551;240;1082;-70
2021/09/01 03:24:40;;;;;;;;;;;23.70;47.80;;;;;;491710;240;2188;-71
2021/09/01 03:26:41;;;;;;;;;;;24.30;47.10;;;;;;491540;240;1312;-70
2021/09/01 03:28:42;;;;;;;;;;;24.30;47.00;;;;;;491561;240;1038;-71
2021/09/01 03:30:44;;;;;;;;;;;24.10;47.20;;;;;;491577;240;1129;-71
2021/09/01 03:32:45;;;;;;;;;;;24.10;47.30;;;;;;491590;240;1157;-71
2021/09/01 03:34:46;;;;;;;;;;;24.30;46.70;;;;;;491615;240;945;-71
2021/09/01 03:36:48;;;;;;;;;;;24.20;46.70;;;;;;491576;240;1307;-71
2021/09/01 03:38:49;;;;;;;;;;;24.40;46.70;;;;;;491566;240;981;-71
2021/09/01 03:40:50;;;;;;;;;;;24.00;47.30;;;;;;491568;240;1118;-71
2021/09/01 03:42:52;;;;;;;;;;;24.20;47.00;;;;;;491492;240;1142;-71
2021/09/01 03:44:53;;;;;;;;;;;24.50;46.20;;;;;;491553;240;2184;-71
2021/09/01 03:46:54;;;;;;;;;;;24.60;46.20;;;;;;491464;240;1177;-70
2021/09/01 03:48:56;;;;;;;;;;;24.60;45.80;;;;;;491588;240;963;-70
2021/09/01 03:50:57;;;;;;;;;;;24.30;46.20;;;;;;491536;240;1233;-70
2021/09/01 03:52:58;;;;;;;;;;;24.60;45.90;;;;;;491571;240;1181;-70
2021/09/01 03:55:01;;;;;;;;;;;24.20;46.20;;;;;;491522;240;1062;-70
2021/09/01 03:57:01;;;;;;;;;;;24.40;46.30;;;;;;491474;240;1355;-71
2021/09/01 03:59:02;;;;;;;;;;;24.30;46.10;;;;;;491632;240;974;-71
2021/09/01 04:01:04;;;;;;;;;;;24.60;45.80;;;;;;491600;240;1222;-71
2021/09/01 04:03:05;;;;;;;;;;;24.30;46.20;;;;;;491657;240;1124;-71
2021/09/01 04:05:06;;;;;;;;;;;24.70;45.60;;;;;;491624;240;2153;-70
2021/09/01 04:07:08;;;;;;;;;;;24.30;46.20;;;;;;491515;240;1161;-71
2021/09/01 04:09:09;;;;;;;;;;;24.40;45.80;;;;;;491596;240;1137;-71
2021/09/01 04:11:11;;;;;;;;;;;24.50;45.60;;;;;;491516;240;1177;-70
2021/09/01 04:13:12;;;;;;;;;;;24.60;45.60;;;;;;491521;240;1122;-71
2021/09/01 04:15:13;;;;;;;;;;;24.20;45.90;;;;;;491525;240;978;-71
2021/09/01 04:17:15;;;;;;;;;;;24.60;45.60;;;;;;491517;238;1178;-72
2021/09/01 04:19:16;;;;;;;;;;;24.60;45.50;;;;;;491505;240;995;-73
2021/09/01 04:21:17;;;;;;;;;;;24.30;45.80;;;;;;491464;240;1209;-73
2021/09/01 04:23:19;;;;;;;;;;;24.10;46.30;;;;;;491434;240;1182;-73
2021/09/01 04:25:20;;;;;;;;;;;23.90;46.90;;;;;;491517;240;2117;-73
2021/09/01 04:27:21;;;;;;;;;;;24.10;46.40;;;;;;491405;240;1140;-73
2021/09/01 04:29:22;;;;;;;;;;;24.30;45.90;;;;;;491555;240;990;-73
2021/09/01 04:31:24;;;;;;;;;;;24.20;46.10;;;;;;491499;240;1176;-73
2021/09/01 04:33:25;;;;;;;;;;;24.30;45.90;;;;;;491505;240;1161;-73
2021/09/01 04:35:26;;;;;;;;;;;24.50;45.40;;;;;;491496;240;1067;-73
2021/09/01 04:37:28;;;;;;;;;;;24.40;45.50;;;;;;491420;240;1118;-73
2021/09/01 04:39:29;;;;;;;;;;;24.60;45.40;;;;;;491314;240;1103;-73
2021/09/01 04:41:31;;;;;;;;;;;24.30;45.80;;;;;;491312;240;1030;-73
2021/09/01 04:43:32;;;;;;;;;;;24.40;45.60;;;;;;491479;240;2193;-73
2021/09/01 04:45:33;;;;;;;;;;;24.10;46.10;;;;;;491430;240;1057;-73
2021/09/01 04:47:35;;;;;;;;;;;24.30;45.70;;;;;;491089;240;1148;-73
2021/09/01 04:49:36;;;;;;;;;;;24.20;46.00;;;;;;491389;240;1069;-73
2021/09/01 04:51:37;;;;;;;;;;;24.60;45.30;;;;;;491360;240;1268;-73
2021/09/01 04:53:39;;;;;;;;;;;24.00;46.20;;;;;;491435;240;1182;-73
2021/09/01 04:55:40;;;;;;;;;;;24.30;45.60;;;;;;491372;240;1212;-72
2021/09/01 04:57:41;;;;;;;;;;;24.40;45.90;;;;;;491363;240;1057;-72
2021/09/01 04:59:43;;;;;;;;;;;24.20;45.60;;;;;;491291;240;1074;-72
2021/09/01 05:01:44;;;;;;;;;;;24.20;46.20;;;;;;491325;240;1212;-73
2021/09/01 05:03:45;;;;;;;;;;;24.20;45.80;;;;;;491344;240;2145;-73
2021/09/01 05:05:47;;;;;;;;;;;24.10;45.80;;;;;;491343;240;1180;-73
2021/09/01 05:07:48;;;;;;;;;;;24.40;45.70;;;;;;491290;240;1287;-73
2021/09/01 05:09:49;;;;;;;;;;;24.60;45.40;;;;;;491194;240;1067;-73
2021/09/01 05:11:50;;;;;;;;;;;24.20;45.70;;;;;;491175;240;1122;-73
2021/09/01 05:13:52;;;;;;;;;;;24.00;46.10;;;;;;491332;240;1089;-73
2021/09/01 05:15:53;;;;;;;;;;;24.50;45.50;;;;;;491321;240;1405;-73
2021/09/01 05:17:54;;;;;;;;;;;24.20;45.90;;;;;;491274;240;1200;-73
2021/09/01 05:19:56;;;;;;;;;;;24.30;45.70;;;;;;491349;240;1046;-73
2021/09/01 05:21:57;;;;;;;;;;;24.40;45.50;;;;;;491282;240;1232;-73
2021/09/01 05:23:58;;;;;;;;;;;24.50;45.40;;;;;;491282;240;2163;-73
2021/09/01 05:26:00;;;;;;;;;;;24.30;45.60;;;;;;491268;240;1536;-73
2021/09/01 05:28:01;;;;;;;;;;;24.40;45.70;;;;;;491316;240;1231;-73
2021/09/01 05:30:02;;;;;;;;;;;24.40;45.70;;;;;;491303;240;1038;-73
2021/09/01 05:32:04;;;;;;;;;;;24.50;45.50;;;;;;491239;240;1347;-73
2021/09/01 05:34:05;;;;;;;;;;;24.60;45.20;;;;;;491268;240;1124;-72
2021/09/01 05:36:06;;;;;;;;;;;24.50;45.20;;;;;;490997;240;1330;-72
2021/09/01 05:38:08;;;;;;;;;;;24.60;45.30;;;;;;491208;240;1341;-73
2021/09/01 05:40:09;;;;;;;;;;;24.60;45.40;;;;;;491192;240;1058;-73
2021/09/01 05:42:11;;;;;;;;;;;24.10;46.30;;;;;;491230;240;1343;-73
2021/09/01 05:44:12;;;;;;;;;;;24.50;45.80;;;;;;491290;240;2149;-73
2021/09/01 05:46:13;;;;;;;;;;;24.30;46.20;;;;;;491169;240;1243;-73
2021/09/01 05:48:15;;;;;;;;;;;24.20;46.60;;;;;;491132;240;1146;-73
2021/09/01 05:50:16;;;;;;;;;;;24.30;46.20;;;;;;491103;240;1093;-73
2021/09/01 05:52:17;;;;;;;;;;;24.40;46.30;;;;;;491116;240;1138;-73
2021/09/01 05:54:19;;;;;;;;;;;24.10;46.80;;;;;;491352;240;1194;-73
2021/09/01 05:56:20;;;;;;;;;;;24.50;46.30;;;;;;491332;240;1502;-73
2021/09/01 05:58:21;;;;;;;;;;;24.20;46.70;;;;;;491237;240;1092;-73
2021/09/01 06:00:23;;;;;;;;;;;24.00;46.80;;;;;;491181;240;1071;-73
2021/09/01 06:02:24;;;;;;;;;;;23.90;47.60;;;;;;491137;240;1112;-73
2021/09/01 06:04:25;;;;;;;;;;;24.40;46.70;;;;;;491234;240;2132;-73
2021/09/01 06:06:27;;;;;;;;;;;24.40;46.70;;;;;;491170;238;1318;-73
2021/09/01 06:08:32;;;;;;;;;;;24.20;46.40;;;;;;491226;240;1152;-73
2021/09/01 06:10:31;;;;;;;;;;;24.20;46.80;;;;;;490971;242;1883;-73
2021/09/01 06:12:31;;;;;;;;;;;24.40;46.70;;;;;;491274;240;1255;-73
2021/09/01 06:14:33;;;;;;;;;;;24.30;46.80;;;;;;491227;240;1079;-73
2021/09/01 06:16:34;;;;;;;;;;;24.50;46.60;;;;;;491135;240;1349;-73
2021/09/01 06:18:35;;;;;;;;;;;24.20;46.90;;;;;;491116;240;1032;-73
2021/09/01 06:20:37;;;;;;;;;;;24.30;46.90;;;;;;491093;240;1029;-74
2021/09/01 06:22:38;;;;;;;;;;;23.90;47.80;;;;;;491043;240;1182;-73
2021/09/01 06:24:39;;;;;;;;;;;24.10;47.40;;;;;;491212;240;2184;-73
2021/09/01 06:26:41;;;;;;;;;;;24.30;47.30;;;;;;491092;240;1226;-73
2021/09/01 06:28:42;;;;;;;;;;;24.40;47.00;;;;;;491103;240;1155;-73
2021/09/01 06:30:43;;;;;;;;;;;24.40;47.10;;;;;;491080;240;1051;-73
2021/09/01 06:32:44;;;;;;;;;;;24.40;47.20;;;;;;491042;240;1146;-73
2021/09/01 06:34:46;;;;;;;;;;;24.40;47.20;;;;;;491110;240;1061;-73
2021/09/01 06:36:47;;;;;;;;;;;24.50;47.20;;;;;;491082;240;1111;-73
2021/09/01 06:38:49;;;;;;;;;;;24.40;47.50;;;;;;490998;240;1151;-73
2021/09/01 06:40:50;;;;;;;;;;;24.40;47.50;;;;;;490944;240;1218;-73
2021/09/01 06:42:51;;;;;;;;;;;24.40;47.50;;;;;;490882;240;1104;-73
2021/09/01 06:44:52;;;;;;;;;;;24.30;47.80;;;;;;490950;240;2141;-73
2021/09/01 06:46:54;;;;;;;;;;;24.30;47.80;;;;;;490887;240;1180;-73
2021/09/01 06:48:55;;;;;;;;;;;24.30;47.70;;;;;;490638;240;1072;-73
2021/09/01 06:50:56;;;;;;;;;;;24.40;47.70;;;;;;490620;240;1406;-73
2021/09/01 06:52:58;;;;;;;;;;;23.80;48.70;;;;;;490621;240;1292;-73
2021/09/01 06:54:59;;;;;;;;;;;24.20;48.60;;;;;;490717;240;1182;-73
2021/09/01 06:57:00;;;;;;;;;;;24.30;48.10;;;;;;490307;240;1180;-73
2021/09/01 06:59:02;;;;;;;;;;;24.30;48.10;;;;;;490679;240;1067;-73
2021/09/01 07:01:03;;;;;;;;;;;24.20;48.30;;;;;;490674;240;1179;-73
2021/09/01 07:03:04;;;;;;;;;;;24.40;48.00;;;;;;490735;240;1269;-73
2021/09/01 07:05:06;;;;;;;;;;;24.10;48.40;;;;;;490601;240;2148;-73
2021/09/01 07:07:07;;;;;;;;;;;24.30;48.50;;;;;;490575;240;1105;-73
2021/09/01 07:09:08;;;;;;;;;;;24.20;48.50;;;;;;490623;240;1152;-73
2021/09/01 07:11:10;;;;;;;;;;;24.20;48.40;;;;;;490747;240;1132;-73
2021/09/01 07:13:11;;;;;;;;;;;23.90;49.10;;;;;;490422;240;1118;-73
2021/09/01 07:15:12;;;;;;;;;;;23.90;49.60;;;;;;490395;240;1107;-73
2021/09/01 07:17:14;;;;;;;;;;;24.20;49.00;;;;;;490495;240;1182;-73
2021/09/01 07:19:17;;;;;;;;;;;24.20;48.60;;;;;;490431;240;1429;-73
2021/09/01 07:21:18;;;;;;;;;;;24.40;48.30;;;;;;490502;240;1385;-73
2021/09/01 07:23:19;;;;;;;;;;;23.90;49.00;;;;;;490568;240;1294;-73
2021/09/01 07:25:20;;;;;;;;;;;24.10;49.00;;;;;;490519;240;2187;-73
2021/09/01 07:27:22;;;;;;;;;;;24.10;48.90;;;;;;490584;240;1503;-73
2021/09/01 07:29:23;;;;;;;;;;;24.30;48.70;;;;;;490275;240;1067;-74
2021/09/01 07:31:26;;;;;;;;;;;24.40;48.40;;;;;;490373;240;1244;-73
2021/09/01 07:33:26;;;;;;;;;;;24.10;48.80;;;;;;490343;240;1375;-73
2021/09/01 07:35:27;;;;;;;;;;;24.00;49.10;;;;;;490317;240;1092;-73
2021/09/01 07:37:28;;;;;;;;;;;24.30;48.60;;;;;;490460;240;1190;-73
2021/09/01 07:39:30;;;;;;;;;;;24.50;48.10;;;;;;490403;240;1268;-73
2021/09/01 07:41:31;;;;;;;;;;;24.40;48.30;;;;;;490513;240;1241;-73
2021/09/01 07:43:32;;;;;;;;;;;24.50;48.20;;;;;;490411;240;1073;-73
2021/09/01 07:45:34;;;;;;;;;;;24.40;48.30;;;;;;490421;240;2353;-73
2021/09/01 07:47:35;;;;;;;;;;;24.10;48.80;;;;;;490468;240;1140;-73
2021/09/01 07:49:36;;;;;;;;;;;24.50;48.30;;;;;;490524;240;1100;-73
2021/09/01 07:51:38;;;;;;;;;;;24.50;48.00;;;;;;490546;240;1099;-73
2021/09/01 07:53:39;;;;;;;;;;;24.60;47.90;;;;;;490455;240;1158;-73
2021/09/01 07:55:40;;;;;;;;;;;24.50;48.10;;;;;;490223;240;1212;-73
2021/09/01 07:57:42;;;;;;;;;;;24.80;47.50;;;;;;490353;240;1078;-73
2021/09/01 07:59:43;;;;;;;;;;;24.60;47.80;;;;;;490486;240;1062;-73
2021/09/01 08:01:44;;;;;;;;;;;24.70;47.70;;;;;;490274;240;1167;-73
2021/09/01 08:03:46;;;;;;;;;;;24.70;47.70;;;;;;490709;240;1073;-73
2021/09/01 08:05:47;;;;;;;;;;;24.40;48.10;;;;;;490660;240;2176;-73
2021/09/01 08:07:48;;;;;;;;;;;24.50;48.20;;;;;;490613;240;1108;-73
2021/09/01 08:09:50;;;;;;;;;;;23.90;48.60;;;;;;490592;240;1134;-74
2021/09/01 08:11:51;;;;;;;;;;;24.30;48.50;;;;;;490590;240;1125;-73
2021/09/01 08:13:52;;;;;;;;;;;24.30;48.10;;;;;;490593;240;1082;-73
2021/09/01 08:15:53;;;;;;;;;;;24.10;48.60;;;;;;490428;240;1255;-74
2021/09/01 08:17:55;;;;;;;;;;;24.30;48.30;;;;;;490479;240;1155;-73
2021/09/01 08:19:56;;;;;;;;;;;24.30;48.00;;;;;;490498;240;1219;-73
2021/09/01 08:21:57;;;;;;;;;;;24.40;48.10;;;;;;490600;240;1083;-73
2021/09/01 08:23:59;;;;;;;;;;;24.30;48.20;;;;;;490621;240;1033;-73
2021/09/01 08:26:00;;;;;;;;;;;24.20;48.40;;;;;;490648;240;2192;-73
2021/09/01 08:28:02;;;;;;;;;;;23.80;49.30;;;;;;490755;240;1076;-73
2021/09/01 08:30:03;;;;;;;;;;;24.10;48.30;;;;;;490563;240;840;-73
2021/09/01 08:32:04;;;;;;;;;;;24.10;48.50;;;;;;490526;240;1010;-73
2021/09/01 08:34:06;;;;;;;;;;;23.80;49.00;;;;;;490499;240;1064;-73
2021/09/01 08:36:07;;;;;;;;;;;23.50;50.00;;;;;;490464;240;1431;-73
2021/09/01 08:38:08;;;;;;;;;;;23.30;50.30;;;;;;490515;240;1038;-73
2021/09/01 08:40:10;;;;;;;;;;;23.10;50.80;;;;;;490364;240;1149;-73
2021/09/01 08:42:11;;;;;;;;;;;23.10;50.70;;;;;;490416;240;1496;-73
2021/09/01 08:46:22;;;;;;;;;;;23.10;50.60;;;;;;496156;237;2606;-73
2021/09/01 08:48:24;;;;;;;;;;;23.10;50.70;;;;;;477566;246;1129;-73
2021/09/01 08:50:25;;;;;;;;;;;23.30;50.40;;;;;;486161;244;1151;-73
2021/09/01 08:52:26;;;;;;;;;;;23.10;50.40;;;;;;495014;240;1145;-72
2021/09/01 08:54:28;;;;;;;;;;;23.00;50.70;;;;;;494890;240;1083;-72
2021/09/01 08:56:30;;;;;;;;;;;23.00;50.60;;;;;;494945;240;1122;-72
2021/09/01 08:58:30;;;;;;;;;;;23.10;50.40;;;;;;494992;240;1349;-72
2021/09/01 09:00:32;;;;;;;;;;;23.10;50.60;;;;;;494773;240;1159;-72
2021/09/01 09:02:33;;;;;;;;;;;23.00;50.50;;;;;;494685;240;1204;-72
2021/09/01 09:04:35;;;;;;;;;;;22.90;50.80;;;;;;494450;240;1396;-73
2021/09/01 09:06:36;;;;;;;;;;;23.00;50.60;;;;;;494802;240;2208;-73
2021/09/01 09:08:37;;;;;;;;;;;23.10;50.40;;;;;;495074;240;1139;-73
2021/09/01 09:10:38;;;;;;;;;;;23.00;50.50;;;;;;494988;240;1354;-73
2021/09/01 09:12:40;;;;;;;;;;;23.10;50.30;;;;;;494994;240;1331;-73
2021/09/01 09:14:41;;;;;;;;;;;23.00;50.60;;;;;;495011;240;1111;-73
2021/09/01 09:16:42;;;;;;;;;;;23.30;49.90;;;;;;494935;240;1094;-73
2021/09/01 09:18:44;;;;;;;;;;;23.50;49.40;;;;;;494932;240;1091;-73
2021/09/01 09:20:45;;;;;;;;;;;23.70;49.00;;;;;;495002;240;1139;-73
2021/09/01 09:22:46;;;;;;;;;;;23.80;48.30;;;;;;494910;240;1093;-73
2021/09/01 09:24:48;;;;;;;;;;;23.80;48.70;;;;;;494790;240;1094;-73
2021/09/01 09:26:49;;;;;;;;;;;23.90;48.70;;;;;;494723;240;2198;-73
2021/09/01 09:28:50;;;;;;;;;;;24.10;48.00;;;;;;494982;240;1084;-73
2021/09/01 09:30:52;;;;;;;;;;;24.20;47.80;;;;;;494887;240;1108;-73
2021/09/01 09:32:53;;;;;;;;;;;24.10;48.00;;;;;;495015;240;1191;-73
2021/09/01 09:34:56;;;;;;;;;;;24.20;47.80;;;;;;495009;240;1093;-73
2021/09/01 09:36:56;;;;;;;;;;;24.30;47.70;;;;;;494827;240;1390;-73
2021/09/01 09:38:57;;;;;;;;;;;24.20;47.90;;;;;;495099;240;1114;-73
2021/09/01 09:40:58;;;;;;;;;;;24.10;48.10;;;;;;494907;240;1210;-73
2021/09/01 09:43:00;;;;;;;;;;;24.30;47.70;;;;;;495047;240;1109;-73
2021/09/01 09:45:01;;;;;;;;;;;24.30;47.50;;;;;;494993;240;1081;-73
2021/09/01 09:47:02;;;;;;;;;;;24.30;47.70;;;;;;495005;240;2194;-73
2021/09/01 09:49:04;;;;;;;;;;;24.20;47.50;;;;;;495038;240;1163;-73
2021/09/01 09:51:05;;;;;;;;;;;24.40;47.30;;;;;;494938;240;1217;-73
2021/09/01 09:53:06;;;;;;;;;;;24.20;47.40;;;;;;495014;240;1130;-73
2021/09/01 09:55:08;;;;;;;;;;;24.30;47.40;;;;;;494945;240;1134;-73
2021/09/01 09:57:09;;;;;;;;;;;24.40;47.00;;;;;;494817;240;1282;-73
2021/09/01 09:59:10;;;;;;;;;;;24.40;47.00;;;;;;495061;240;1063;-73
2021/09/01 10:01:11;;;;;;;;;;;24.30;47.20;;;;;;494869;240;1500;-73
2021/09/01 10:03:13;;;;;;;;;;;24.40;47.00;;;;;;495104;240;1115;-73
2021/09/01 10:05:14;;;;;;;;;;;24.50;46.60;;;;;;495032;240;785;-73
2021/09/01 10:07:15;;;;;;;;;;;24.30;47.00;;;;;;494991;240;2189;-73
2021/09/01 10:09:17;;;;;;;;;;;24.20;47.20;;;;;;495562;240;1072;-73
2021/09/01 10:11:19;;;;;;;;;;;24.50;46.80;;;;;;495082;238;1187;-72
2021/09/01 10:13:19;;;;;;;;;;;24.50;46.50;;;;;;495057;240;1281;-72
2021/09/01 10:15:21;;;;;;;;;;;24.60;46.40;;;;;;494894;240;857;-72
2021/09/01 10:17:22;;;;;;;;;;;24.60;46.30;;;;;;494915;240;1105;-72
2021/09/01 10:19:23;;;;;;;;;;;24.60;46.30;;;;;;495120;240;839;-73
2021/09/01 10:21:25;;;;;;;;;;;24.60;46.10;;;;;;495013;240;1361;-73
2021/09/01 10:23:26;;;;;;;;;;;24.50;46.40;;;;;;495053;240;765;-73
2021/09/01 10:25:27;;;;;;;;;;;24.50;46.30;;;;;;494920;240;727;-73
2021/09/01 10:27:29;;;;;;;;;;;24.40;46.20;;;;;;494893;240;2182;-73
2021/09/01 10:29:30;;;;;;;;;;;24.50;46.20;;;;;;495254;240;857;-73
2021/09/01 10:31:31;;;;;;;;;;;24.60;46.00;;;;;;495201;240;1207;-73
2021/09/01 10:33:33;;;;;;;;;;;24.70;45.70;;;;;;494993;240;773;-73
2021/09/01 10:35:34;;;;;;;;;;;24.40;46.10;;;;;;494971;240;1416;-73
2021/09/01 10:37:35;;;;;;;;;;;24.10;46.60;;;;;;495464;240;970;-72
2021/09/01 10:39:37;;;;;;;;;;;24.40;46.70;;;;;;494938;240;688;-72
2021/09/01 10:41:39;;;;;;;;;;;24.50;46.40;;;;;;494925;240;1003;-73
2021/09/01 10:43:39;;;;;;;;;;;24.40;46.50;;;;;;494913;240;1320;-73
2021/09/01 10:45:41;;;;;;;;;;;24.30;46.30;;;;;;495274;239;2222;-73
2021/09/01 10:47:42;;;;;;;;;;;24.30;46.30;;;;;;495179;240;1362;-73
2021/09/01 10:49:43;;;;;;;;;;;24.40;46.50;;;;;;495042;240;1082;-73
2021/09/01 10:51:45;;;;;;;;;;;24.50;46.20;;;;;;494956;240;1431;-73
2021/09/01 10:53:46;;;;;;;;;;;24.40;46.40;;;;;;495236;240;1035;-73
2021/09/01 10:55:47;;;;;;;;;;;24.20;46.60;;;;;;495334;240;1097;-73
2021/09/01 10:57:48;;;;;;;;;;;24.40;46.30;;;;;;495181;240;1294;-72
2021/09/01 10:59:50;;;;;;;;;;;24.30;46.40;;;;;;495077;240;1065;-73
2021/09/01 11:01:51;;;;;;;;;;;24.50;46.10;;;;;;494971;240;1558;-73
2021/09/01 11:03:53;;;;;;;;;;;24.40;46.20;;;;;;495000;240;1086;-73
2021/09/01 11:05:54;;;;;;;;;;;23.90;46.50;;;;;;495058;240;2190;-73
2021/09/01 11:07:55;;;;;;;;;;;24.20;46.30;;;;;;495274;240;1103;-73
2021/09/01 11:09:57;;;;;;;;;;;24.50;45.90;;;;;;495198;240;1203;-73
2021/09/01 11:11:58;;;;;;;;;;;24.60;45.60;;;;;;495131;240;1458;-73
2021/09/01 11:13:59;;;;;;;;;;;24.50;45.70;;;;;;495024;240;1100;-73
2021/09/01 11:16:01;;;;;;;;;;;24.50;45.50;;;;;;494787;236;1190;-73
2021/09/01 11:18:02;;;;;;;;;;;24.60;45.30;;;;;;495031;240;1192;-73
2021/09/01 11:20:03;;;;;;;;;;;24.50;45.30;;;;;;494896;240;1112;-73
2021/09/01 11:22:06;;;;;;;;;;;24.70;45.20;;;;;;495089;240;1083;-73
2021/09/01 11:24:06;;;;;;;;;;;24.50;45.20;;;;;;494922;240;1309;-73
2021/09/01 11:26:07;;;;;;;;;;;24.50;45.40;;;;;;494824;240;2211;-73
2021/09/01 11:28:09;;;;;;;;;;;24.50;45.20;;;;;;494856;240;1093;-73
2021/09/01 11:30:10;;;;;;;;;;;24.40;45.20;;;;;;494825;240;1128;-73
2021/09/01 11:32:11;;;;;;;;;;;24.30;45.50;;;;;;494783;240;1160;-73
2021/09/01 11:34:13;;;;;;;;;;;24.40;45.20;;;;;;494965;240;1131;-73
2021/09/01 11:36:14;;;;;;;;;;;24.30;45.60;;;;;;494868;240;1342;-73
2021/09/01 11:38:15;;;;;;;;;;;24.40;45.20;;;;;;494926;240;1217;-73
2021/09/01 11:40:16;;;;;;;;;;;24.50;45.10;;;;;;495010;240;1094;-73
2021/09/01 11:42:18;;;;;;;;;;;24.60;44.80;;;;;;494990;240;1077;-73
2021/09/01 11:44:19;;;;;;;;;;;24.70;44.80;;;;;;495159;240;1102;-72
2021/09/01 11:46:20;;;;;;;;;;;24.40;45.00;;;;;;495036;240;2174;-73
2021/09/01 11:48:22;;;;;;;;;;;24.30;45.30;;;;;;495023;240;1182;-73
2021/09/01 11:50:23;;;;;;;;;;;24.50;45.00;;;;;;494967;240;1118;-73
2021/09/01 11:52:24;;;;;;;;;;;24.40;45.30;;;;;;495016;240;1211;-73
2021/09/01 11:54:26;;;;;;;;;;;24.40;45.10;;;;;;494851;240;1116;-73
2021/09/01 11:56:27;;;;;;;;;;;24.60;44.80;;;;;;494688;240;1124;-73
2021/09/01 11:58:28;;;;;;;;;;;24.50;44.90;;;;;;494904;240;1102;-73